createdAt,value
2022-09-15T00:01:05.076Z,11.80
2022-09-15T00:03:32.362Z,11.90
2022-09-15T00:05:59.488Z,11.80
2022-09-15T00:08:27.159Z,11.80
2022-09-15T00:11:06.222Z,11.80
2022-09-15T00:13:34.905Z,11.80
2022-09-15T00:16:02.799Z,11.80
2022-09-15T00:18:30.814Z,11.70
2022-09-15T00:20:58.152Z,11.70
2022-09-15T00:23:25.373Z,11.70
2022-09-15T00:25:53.617Z,11.60
2022-09-15T00:28:22.937Z,11.60
2022-09-15T00:30:55.816Z,11.50
2022-09-15T00:33:23.988Z,11.50
2022-09-15T00:35:54.175Z,11.50
2022-09-15T00:38:21.715Z,11.40
2022-09-15T00:40:51.414Z,11.40
2022-09-15T00:43:40.899Z,11.30
2022-09-15T00:46:08.323Z,11.30
2022-09-15T00:48:38.289Z,11.30
2022-09-15T00:51:08.703Z,11.20
2022-09-15T00:53:37.009Z,11.20
2022-09-15T00:56:05.611Z,11.20
2022-09-15T00:58:38.904Z,11.20
2022-09-15T01:01:08.599Z,11.20
2022-09-15T01:03:36.861Z,11.10
2022-09-15T01:06:20.138Z,11.10
2022-09-15T01:09:22.862Z,11.00
2022-09-15T01:11:50.277Z,11.10
2022-09-15T01:14:17.715Z,11.10
2022-09-15T01:17:14.753Z,11.10
2022-09-15T01:19:56.314Z,11.10
2022-09-15T01:22:56.640Z,11.10
2022-09-15T01:26:02.638Z,11.10
2022-09-15T01:28:43.662Z,11.20
2022-09-15T01:32:06.054Z,11.20
2022-09-15T01:34:45.296Z,11.20
2022-09-15T01:37:17.813Z,11.20
2022-09-15T01:39:47.135Z,11.20
2022-09-15T01:42:17.016Z,11.30
2022-09-15T01:44:53.260Z,11.30
2022-09-15T01:47:22.444Z,11.30
2022-09-15T01:49:51.784Z,11.30
2022-09-15T01:52:21.850Z,11.30
2022-09-15T01:54:54.116Z,11.20
2022-09-15T01:57:22.779Z,11.20
2022-09-15T01:59:51.381Z,11.10
2022-09-15T02:02:24.478Z,11.10
2022-09-15T02:04:54.412Z,11.00
2022-09-15T02:07:32.024Z,11.00
2022-09-15T02:10:17.105Z,10.90
2022-09-15T02:12:57.842Z,10.90
2022-09-15T02:15:33.594Z,10.90
2022-09-15T02:18:03.375Z,10.80
2022-09-15T02:20:42.873Z,10.70
2022-09-15T02:23:35.541Z,10.70
2022-09-15T02:26:14.383Z,10.70
2022-09-15T02:28:44.090Z,10.60
2022-09-15T02:31:15.978Z,10.60
2022-09-15T02:33:51.642Z,10.60
2022-09-15T02:36:21.330Z,10.60
2022-09-15T02:38:53.791Z,10.60
2022-09-15T02:41:21.566Z,10.50
2022-09-15T02:43:49.764Z,10.60
2022-09-15T02:46:20.366Z,10.50
2022-09-15T02:48:47.557Z,10.50
2022-09-15T02:51:16.538Z,10.50
2022-09-15T02:53:45.841Z,10.50
2022-09-15T02:56:13.835Z,10.50
2022-09-15T02:58:41.000Z,10.50
2022-09-15T03:01:12.744Z,10.50
2022-09-15T03:03:42.897Z,10.50
2022-09-15T03:06:17.329Z,10.50
2022-09-15T03:08:52.525Z,10.50
2022-09-15T03:11:22.084Z,10.50
2022-09-15T03:13:53.401Z,10.50
2022-09-15T03:16:20.735Z,10.50
2022-09-15T03:18:48.565Z,10.50
2022-09-15T03:21:17.248Z,10.50
2022-09-15T03:23:44.932Z,10.50
2022-09-15T03:26:12.895Z,10.40
2022-09-15T03:28:40.726Z,10.50
2022-09-15T03:31:09.328Z,10.50
2022-09-15T03:33:38.036Z,10.50
2022-09-15T03:36:07.089Z,10.60
2022-09-15T03:38:34.391Z,10.60
2022-09-15T03:41:10.771Z,10.60
2022-09-15T03:43:39.091Z,10.60
2022-09-15T03:46:08.294Z,10.60
2022-09-15T03:48:36.701Z,10.60
2022-09-15T03:51:06.772Z,10.70
2022-09-15T03:53:35.924Z,10.70
2022-09-15T03:56:12.001Z,10.70
2022-09-15T03:58:39.499Z,10.70
2022-09-15T04:01:06.797Z,10.70
2022-09-15T04:03:35.734Z,10.80
2022-09-15T04:06:06.581Z,10.70
2022-09-15T04:08:33.745Z,10.70
2022-09-15T04:11:08.195Z,10.80
2022-09-15T04:13:36.636Z,10.80
2022-09-15T04:16:06.959Z,10.80
2022-09-15T04:18:35.045Z,10.80
2022-09-15T04:21:09.029Z,10.90
2022-09-15T04:23:36.426Z,10.90
2022-09-15T04:26:08.858Z,10.90
2022-09-15T04:28:38.169Z,11.00
2022-09-15T04:31:05.547Z,11.00
2022-09-15T04:33:33.309Z,11.10
2022-09-15T04:36:02.260Z,11.10
2022-09-15T04:38:30.316Z,11.20
2022-09-15T04:40:58.970Z,11.20
2022-09-15T04:43:27.366Z,11.20
2022-09-15T04:45:55.548Z,11.20
2022-09-15T04:48:23.717Z,11.30
2022-09-15T04:50:50.880Z,11.20
2022-09-15T04:53:18.261Z,11.30
2022-09-15T04:55:45.724Z,11.30
2022-09-15T04:58:13.271Z,11.30
2022-09-15T05:00:45.935Z,11.30
2022-09-15T05:03:14.302Z,11.40
2022-09-15T05:05:41.811Z,11.40
2022-09-15T05:08:09.098Z,11.40
2022-09-15T05:10:37.561Z,11.40
2022-09-15T05:13:04.798Z,11.50
2022-09-15T05:15:31.991Z,11.40
2022-09-15T05:17:59.285Z,11.50
2022-09-15T05:20:26.570Z,11.50
2022-09-15T05:22:53.734Z,11.60
2022-09-15T05:25:21.490Z,11.60
2022-09-15T05:27:48.651Z,11.60
2022-09-15T05:30:36.792Z,11.60
2022-09-15T05:33:03.205Z,11.60
2022-09-15T05:35:30.480Z,11.60
2022-09-15T05:37:57.628Z,11.70
2022-09-15T05:40:24.912Z,11.70
2022-09-15T05:42:52.157Z,11.70
2022-09-15T05:45:19.377Z,11.70
2022-09-15T05:47:46.620Z,11.70
2022-09-15T05:50:14.934Z,11.70
2022-09-15T05:52:42.174Z,11.80
2022-09-15T05:55:10.252Z,11.80
2022-09-15T05:57:37.422Z,11.90
2022-09-15T06:00:05.570Z,12.00
2022-09-15T06:02:32.873Z,12.00
2022-09-15T06:05:00.129Z,12.10
2022-09-15T06:07:27.488Z,12.20
2022-09-15T06:09:54.691Z,12.20
2022-09-15T06:12:22.175Z,12.30
2022-09-15T06:14:51.163Z,12.40
2022-09-15T06:17:18.445Z,12.50
2022-09-15T06:19:45.972Z,12.50
2022-09-15T06:22:13.772Z,12.60
2022-09-15T06:24:40.960Z,12.70
2022-09-15T06:27:08.135Z,12.70
2022-09-15T06:29:36.226Z,12.80
2022-09-15T06:32:03.706Z,12.80
2022-09-15T06:34:32.866Z,12.90
2022-09-15T06:37:00.680Z,12.90
2022-09-15T06:39:28.061Z,13.00
2022-09-15T06:42:04.791Z,13.10
2022-09-15T06:44:33.777Z,13.10
2022-09-15T06:47:00.945Z,13.20
2022-09-15T06:49:29.181Z,13.30
2022-09-15T06:51:56.772Z,13.30
2022-09-15T06:54:23.912Z,13.40
2022-09-15T06:56:51.077Z,13.50
2022-09-15T06:59:18.611Z,13.60
2022-09-15T07:01:45.955Z,13.70
2022-09-15T07:04:13.242Z,13.80
2022-09-15T07:06:40.839Z,13.80
2022-09-15T07:09:08.404Z,13.80
2022-09-15T07:11:35.907Z,13.80
2022-09-15T07:14:03.301Z,13.80
2022-09-15T07:16:30.597Z,13.90
2022-09-15T07:19:00.764Z,14.00
2022-09-15T07:21:28.632Z,14.00
2022-09-15T07:23:58.014Z,14.00
2022-09-15T07:26:28.466Z,14.10
2022-09-15T07:29:01.316Z,14.20
2022-09-15T07:31:31.558Z,14.40
2022-09-15T07:34:01.214Z,14.50
2022-09-15T07:36:29.640Z,14.60
2022-09-15T07:38:57.104Z,14.50
2022-09-15T07:41:28.963Z,14.50
2022-09-15T07:43:58.531Z,14.50
2022-09-15T07:46:27.624Z,14.60
2022-09-15T07:48:58.043Z,14.70
2022-09-15T07:51:26.107Z,14.80
2022-09-15T07:53:53.999Z,15.00
2022-09-15T07:56:22.617Z,15.20
2022-09-15T07:58:51.166Z,15.30
2022-09-15T08:01:19.941Z,15.30
2022-09-15T08:03:49.394Z,15.30
2022-09-15T08:06:19.294Z,15.30
2022-09-15T08:08:47.383Z,15.30
2022-09-15T08:11:19.553Z,15.30
2022-09-15T08:13:49.599Z,15.40
2022-09-15T08:16:20.598Z,15.30
2022-09-15T08:18:48.493Z,15.30
2022-09-15T08:21:20.395Z,15.30
2022-09-15T08:23:58.147Z,15.30
2022-09-15T08:26:26.778Z,15.40
2022-09-15T08:28:54.148Z,15.30
2022-09-15T08:31:21.821Z,15.30
2022-09-15T08:33:51.541Z,15.20
2022-09-15T08:36:19.312Z,15.20
2022-09-15T08:38:46.975Z,15.10
2022-09-15T08:41:34.275Z,15.00
2022-09-15T08:44:08.557Z,15.00
2022-09-15T08:46:44.947Z,15.00
2022-09-15T08:49:50.932Z,15.20
2022-09-15T08:52:49.472Z,15.40
2022-09-15T08:55:50.044Z,15.50
2022-09-15T08:58:20.043Z,15.40
2022-09-15T09:00:52.050Z,15.30
2022-09-15T09:03:40.110Z,15.40
2022-09-15T09:06:35.891Z,15.50
2022-09-15T09:09:17.878Z,15.70
2022-09-15T09:12:06.753Z,15.90
2022-09-15T09:14:50.893Z,16.10
2022-09-15T09:17:54.864Z,16.30
2022-09-15T09:20:29.554Z,16.50
2022-09-15T09:23:00.873Z,16.50
2022-09-15T09:25:28.591Z,16.40
2022-09-15T09:27:58.646Z,16.50
2022-09-15T09:30:29.857Z,16.60
2022-09-15T09:33:34.978Z,16.80
2022-09-15T09:36:03.920Z,16.80
2022-09-15T09:38:40.094Z,16.80
2022-09-15T09:41:17.247Z,16.90
2022-09-15T09:43:47.216Z,16.90
2022-09-15T09:46:18.153Z,16.70
2022-09-15T09:49:03.317Z,16.60
2022-09-15T09:51:33.384Z,16.70
2022-09-15T09:54:13.216Z,16.90
2022-09-15T09:56:40.718Z,17.00
2022-09-15T09:59:35.791Z,17.00
2022-09-15T10:02:26.745Z,16.90
2022-09-15T10:04:54.014Z,16.90
2022-09-15T10:07:27.146Z,16.70
2022-09-15T10:10:00.010Z,16.70
2022-09-15T10:12:32.355Z,16.80
2022-09-15T10:15:05.522Z,17.00
2022-09-15T10:17:41.824Z,17.20
2022-09-15T10:20:45.414Z,17.30
2022-09-15T10:23:18.121Z,17.30
2022-09-15T10:26:01.338Z,17.20
2022-09-15T10:28:31.160Z,17.20
2022-09-15T10:30:58.494Z,17.30
2022-09-15T10:33:31.654Z,17.40
2022-09-15T10:36:06.570Z,17.60
2022-09-15T10:39:18.105Z,17.70
2022-09-15T10:41:59.487Z,17.70
2022-09-15T10:44:47.953Z,17.60
2022-09-15T10:47:33.322Z,17.60
2022-09-15T10:50:29.377Z,17.50
2022-09-15T10:52:59.304Z,17.10
2022-09-15T10:55:52.697Z,16.80
2022-09-15T10:58:48.432Z,16.70
2022-09-15T11:01:30.802Z,16.70
2022-09-15T11:04:22.539Z,16.80
2022-09-15T11:07:13.504Z,17.10
2022-09-15T11:09:50.064Z,17.20
2022-09-15T11:12:35.990Z,17.20
2022-09-15T11:15:21.331Z,17.30
2022-09-15T11:18:06.848Z,17.50
2022-09-15T11:20:55.581Z,17.60
2022-09-15T11:23:57.545Z,17.80
2022-09-15T11:26:55.278Z,17.90
2022-09-15T11:30:01.265Z,17.80
2022-09-15T11:32:45.322Z,17.60
2022-09-15T11:35:49.132Z,17.40
2022-09-15T11:38:43.406Z,17.20
2022-09-15T11:41:36.522Z,17.40
2022-09-15T11:44:16.738Z,17.50
2022-09-15T11:46:50.197Z,17.70
2022-09-15T11:49:22.820Z,17.70
2022-09-15T11:51:57.312Z,17.70
2022-09-15T11:54:38.318Z,17.80
2022-09-15T11:57:06.411Z,17.90
2022-09-15T11:59:44.991Z,18.10
2022-09-15T12:02:30.824Z,18.40
2022-09-15T12:05:20.001Z,18.60
2022-09-15T12:08:23.343Z,18.50
2022-09-15T12:10:53.150Z,18.30
2022-09-15T12:13:23.001Z,18.00
2022-09-15T12:15:51.618Z,17.60
2022-09-15T12:18:53.021Z,17.20
2022-09-15T12:21:34.195Z,16.90
2022-09-15T12:24:23.518Z,16.60
2022-09-15T12:26:50.988Z,16.40
2022-09-15T12:29:33.658Z,16.30
2022-09-15T12:32:20.457Z,16.30
2022-09-15T12:35:18.385Z,16.30
2022-09-15T12:37:59.391Z,16.30
2022-09-15T12:40:40.638Z,16.30
2022-09-15T12:43:13.804Z,16.40
2022-09-15T12:45:43.930Z,16.40
2022-09-15T12:48:35.985Z,16.50
2022-09-15T12:51:06.238Z,16.70
2022-09-15T12:53:47.759Z,17.00
2022-09-15T12:56:26.726Z,17.20
2022-09-15T12:58:55.682Z,17.20
2022-09-15T13:01:23.081Z,17.20
2022-09-15T13:03:50.396Z,17.10
2022-09-15T13:06:21.845Z,17.00
2022-09-15T13:09:10.642Z,16.80
2022-09-15T13:11:39.862Z,16.70
2022-09-15T13:14:15.093Z,16.50
2022-09-15T13:16:46.344Z,16.40
2022-09-15T13:19:16.742Z,16.30
2022-09-15T13:21:58.953Z,16.30
2022-09-15T13:24:43.511Z,16.30
2022-09-15T13:27:12.242Z,16.20
2022-09-15T13:30:01.194Z,16.20
2022-09-15T13:32:48.713Z,16.20
2022-09-15T13:35:33.921Z,16.30
2022-09-15T13:38:27.631Z,16.20
2022-09-15T13:41:33.538Z,16.20
2022-09-15T13:44:26.817Z,16.20
2022-09-15T13:46:56.758Z,16.20
2022-09-15T13:49:51.698Z,16.30
2022-09-15T13:52:18.992Z,16.40
2022-09-15T13:55:10.476Z,16.50
2022-09-15T14:00:48.443Z,16.60
2022-09-15T14:03:24.112Z,16.60
2022-09-15T14:05:52.249Z,16.50
2022-09-15T14:08:27.202Z,16.40
2022-09-15T14:11:04.512Z,16.30
2022-09-15T14:13:32.091Z,16.20
2022-09-15T14:16:23.991Z,16.10
2022-09-15T14:18:52.342Z,16.00
2022-09-15T14:21:22.299Z,16.00
2022-09-15T14:23:52.324Z,16.00
2022-09-15T14:26:23.685Z,15.90
2022-09-15T14:28:57.394Z,15.90
2022-09-15T14:31:33.604Z,15.90
2022-09-15T14:34:02.589Z,15.80
2022-09-15T14:36:34.183Z,15.70
2022-09-15T14:39:21.841Z,15.70
2022-09-15T14:41:50.363Z,15.70
2022-09-15T14:47:28.854Z,15.60
2022-09-15T14:50:16.379Z,15.50
2022-09-15T14:52:47.728Z,15.40
2022-09-15T14:55:23.533Z,15.30
2022-09-15T14:57:59.383Z,15.30
2022-09-15T15:00:32.923Z,15.20
2022-09-15T15:03:18.309Z,15.20
2022-09-15T15:06:25.307Z,15.10
2022-09-15T15:08:56.574Z,15.00
2022-09-15T15:11:24.356Z,15.00
2022-09-15T15:13:52.693Z,15.00
2022-09-15T15:16:29.140Z,14.90
2022-09-15T15:18:57.376Z,14.80
2022-09-15T15:21:44.430Z,14.80
2022-09-15T15:24:16.793Z,14.70
2022-09-15T15:26:48.165Z,14.70
2022-09-15T15:29:36.926Z,14.70
2022-09-15T15:32:12.848Z,14.70
2022-09-15T15:34:40.406Z,14.60
2022-09-15T15:37:29.214Z,14.60
2022-09-15T15:39:58.506Z,14.60
2022-09-15T15:42:28.908Z,14.60
2022-09-15T15:45:14.988Z,14.50
2022-09-15T15:47:42.089Z,14.50
2022-09-15T15:50:16.301Z,14.50
2022-09-15T15:52:44.115Z,14.50
2022-09-15T15:55:19.246Z,14.40
2022-09-15T15:57:50.334Z,14.40
2022-09-15T16:00:24.775Z,14.30
2022-09-15T16:02:53.334Z,14.30
2022-09-15T16:05:24.351Z,14.20
2022-09-15T16:07:52.759Z,14.10
2022-09-15T16:10:24.135Z,14.00
2022-09-15T16:12:51.326Z,13.90
2022-09-15T16:15:21.275Z,13.80
2022-09-15T16:17:49.201Z,13.60
2022-09-15T16:20:17.169Z,13.50
2022-09-15T16:22:44.565Z,13.40
2022-09-15T16:25:39.969Z,13.30
2022-09-15T16:28:07.116Z,13.20
2022-09-15T16:30:34.679Z,13.20
2022-09-15T16:33:02.226Z,13.10
2022-09-15T16:35:40.147Z,13.00
2022-09-15T16:38:08.208Z,13.00
2022-09-15T16:40:37.274Z,13.00
2022-09-15T16:43:09.470Z,12.90
2022-09-15T16:45:40.581Z,13.00
2022-09-15T16:48:09.149Z,13.00
2022-09-15T16:50:39.790Z,13.00
2022-09-15T16:53:18.109Z,13.00
2022-09-15T16:55:53.716Z,13.00
2022-09-15T16:58:22.358Z,13.00
2022-09-15T17:00:54.061Z,13.00
2022-09-15T17:03:24.076Z,13.00
2022-09-15T17:05:59.723Z,13.00
2022-09-15T17:08:31.879Z,13.00
2022-09-15T17:11:01.750Z,13.00
2022-09-15T17:13:31.167Z,13.00
2022-09-15T17:15:59.656Z,13.00
2022-09-15T17:18:27.725Z,13.10
2022-09-15T17:20:55.215Z,13.00
2022-09-15T17:23:24.835Z,13.00
2022-09-15T17:25:58.851Z,13.00
2022-09-15T17:28:29.034Z,13.00
2022-09-15T17:31:07.061Z,13.00
2022-09-15T17:33:34.762Z,13.00
2022-09-15T17:36:02.157Z,13.00
2022-09-15T17:38:29.392Z,13.00
2022-09-15T17:40:56.740Z,12.90
2022-09-15T17:43:26.967Z,12.90
2022-09-15T17:45:54.391Z,12.90
2022-09-15T17:48:22.838Z,12.80
2022-09-15T17:50:50.457Z,12.80
2022-09-15T17:53:23.206Z,12.80
2022-09-15T17:55:51.181Z,12.80
2022-09-15T17:58:18.884Z,12.80
2022-09-15T18:00:47.535Z,12.80
2022-09-15T18:03:24.983Z,12.80
2022-09-15T18:05:52.546Z,12.80
2022-09-15T18:08:19.832Z,12.80
2022-09-15T18:10:47.242Z,12.80
2022-09-15T18:13:27.419Z,12.80
2022-09-15T18:15:55.151Z,12.80
2022-09-15T18:18:25.106Z,12.70
2022-09-15T18:20:55.487Z,12.70
2022-09-15T18:23:23.191Z,12.70
2022-09-15T18:25:51.016Z,12.60
2022-09-15T18:28:19.253Z,12.60
2022-09-15T18:30:49.197Z,12.60
2022-09-15T18:33:20.797Z,12.50
2022-09-15T18:35:50.549Z,12.50
2022-09-15T18:38:19.066Z,12.40
2022-09-15T18:40:51.003Z,12.30
2022-09-15T18:43:18.093Z,12.30
2022-09-15T18:45:45.536Z,12.30
2022-09-15T18:48:13.458Z,12.20
2022-09-15T18:50:41.993Z,12.10
2022-09-15T18:53:09.571Z,12.10
2022-09-15T18:55:36.648Z,12.00
2022-09-15T18:58:03.914Z,11.90
2022-09-15T19:00:31.907Z,11.90
2022-09-15T19:03:03.425Z,11.80
2022-09-15T19:05:31.168Z,11.80
2022-09-15T19:07:58.545Z,11.70
2022-09-15T19:10:27.101Z,11.60
2022-09-15T19:12:54.659Z,11.60
2022-09-15T19:15:25.051Z,11.60
2022-09-15T19:17:52.508Z,11.50
2022-09-15T19:20:19.696Z,11.40
2022-09-15T19:22:47.678Z,11.40
2022-09-15T19:25:14.973Z,11.30
2022-09-15T19:27:42.295Z,11.30
2022-09-15T19:30:10.837Z,11.40
2022-09-15T19:32:39.648Z,11.40
2022-09-15T19:35:08.118Z,11.40
2022-09-15T19:37:40.666Z,11.40
2022-09-15T19:40:12.182Z,11.40
2022-09-15T19:42:40.356Z,11.50
2022-09-15T19:45:09.865Z,11.50
2022-09-15T19:47:37.995Z,11.50
2022-09-15T19:50:07.324Z,11.40
2022-09-15T19:52:34.472Z,11.40
2022-09-15T19:55:01.656Z,11.40
2022-09-15T19:57:29.006Z,11.40
2022-09-15T19:59:56.167Z,11.40
2022-09-15T20:02:23.290Z,11.40
2022-09-15T20:07:35.084Z,11.40
2022-09-15T20:10:02.161Z,11.40
2022-09-15T20:12:30.058Z,11.30
2022-09-15T20:14:57.275Z,11.30
2022-09-15T20:17:24.487Z,11.30
2022-09-15T20:19:52.011Z,11.20
2022-09-15T20:22:19.151Z,11.20
2022-09-15T20:24:46.442Z,11.20
2022-09-15T20:27:14.292Z,11.20
2022-09-15T20:29:42.155Z,11.10
2022-09-15T20:32:09.413Z,11.10
2022-09-15T20:34:36.654Z,11.10
2022-09-15T20:37:03.835Z,11.10
2022-09-15T20:39:31.018Z,11.10
2022-09-15T20:41:58.343Z,11.00
2022-09-15T20:44:25.639Z,11.00
2022-09-15T20:46:52.976Z,11.00
2022-09-15T20:49:20.213Z,11.00
2022-09-15T20:51:47.395Z,11.00
2022-09-15T20:54:14.931Z,11.00
2022-09-15T20:56:42.118Z,11.00
2022-09-15T20:59:13.884Z,11.00
2022-09-15T21:01:41.477Z,10.90
2022-09-15T21:04:10.324Z,10.90
2022-09-15T21:06:37.914Z,10.90
2022-09-15T21:09:05.637Z,10.90
2022-09-15T21:11:33.423Z,10.90
2022-09-15T21:14:01.341Z,10.90
2022-09-15T21:16:29.623Z,10.80
2022-09-15T21:18:58.768Z,10.70
2022-09-15T21:21:30.765Z,10.80
2022-09-15T21:24:06.576Z,10.70
2022-09-15T21:26:58.121Z,10.70
2022-09-15T21:29:26.626Z,10.70
2022-09-15T21:31:56.012Z,10.60
2022-09-15T21:34:24.184Z,10.60
2022-09-15T21:36:53.720Z,10.60
2022-09-15T21:39:21.618Z,10.60
2022-09-15T21:41:48.959Z,10.50
2022-09-15T21:44:16.334Z,10.50
2022-09-15T21:46:45.151Z,10.50
2022-09-15T21:49:12.400Z,10.50
2022-09-15T21:51:39.830Z,10.50
2022-09-15T21:54:06.951Z,10.50
2022-09-15T21:56:34.201Z,10.50
2022-09-15T21:59:04.129Z,10.50
2022-09-15T22:01:33.410Z,10.40
2022-09-15T22:04:06.220Z,10.40
2022-09-15T22:06:36.240Z,10.40
2022-09-15T22:09:15.841Z,10.40
2022-09-15T22:11:43.192Z,10.40
2022-09-15T22:14:10.633Z,10.40
2022-09-15T22:16:39.729Z,10.30
2022-09-15T22:19:09.661Z,10.30
2022-09-15T22:21:39.699Z,10.30
2022-09-15T22:24:07.559Z,10.30
2022-09-15T22:26:37.149Z,10.30
2022-09-15T22:29:05.185Z,10.30
2022-09-15T22:31:32.607Z,10.20
2022-09-15T22:33:59.896Z,10.20
2022-09-15T22:36:30.312Z,10.20
2022-09-15T22:39:04.114Z,10.20
2022-09-15T22:41:37.123Z,10.20
2022-09-15T22:44:05.800Z,10.20
2022-09-15T22:46:33.825Z,10.20
2022-09-15T22:49:01.204Z,10.20
2022-09-15T22:51:28.424Z,10.20
2022-09-15T22:53:57.378Z,10.20
2022-09-15T22:56:26.666Z,10.20
2022-09-15T22:58:54.695Z,10.20
2022-09-15T23:01:28.241Z,10.10
2022-09-15T23:03:58.074Z,10.20
2022-09-15T23:06:27.561Z,10.10
2022-09-15T23:09:00.097Z,10.10
2022-09-15T23:11:29.074Z,10.10
2022-09-15T23:13:56.600Z,10.10
2022-09-15T23:16:24.601Z,10.10
2022-09-15T23:18:52.729Z,10.10
2022-09-15T23:21:20.571Z,10.10
2022-09-15T23:23:49.412Z,10.10
2022-09-15T23:26:21.063Z,10.10
2022-09-15T23:28:49.746Z,10.10
2022-09-15T23:31:17.636Z,10.10
2022-09-15T23:33:45.459Z,10.10
2022-09-15T23:36:15.543Z,10.00
2022-09-15T23:38:45.044Z,10.00
2022-09-15T23:41:17.099Z,10.00
2022-09-15T23:43:44.604Z,10.00
2022-09-15T23:46:11.994Z,10.00
2022-09-15T23:48:39.398Z,10.00
2022-09-15T23:51:06.633Z,10.00
2022-09-15T23:53:34.828Z,10.00
2022-09-15T23:56:02.421Z,10.10
2022-09-15T23:58:29.596Z,10.10
